createdAt,value
2016-08-30T00:00:24.295Z,17.79
2016-08-30T00:01:23.743Z,17.87
2016-08-30T00:02:23.866Z,17.84
2016-08-30T00:03:21.762Z,17.81
2016-08-30T00:04:22.432Z,17.87
2016-08-30T00:05:23.556Z,17.86
2016-08-30T00:06:22.370Z,17.84
2016-08-30T00:07:23.034Z,17.77
2016-08-30T00:08:23.004Z,17.75
2016-08-30T00:09:22.277Z,17.71
2016-08-30T00:10:22.945Z,17.72
2016-08-30T00:11:22.213Z,17.64
2016-08-30T00:12:22.181Z,17.68
2016-08-30T00:13:22.152Z,17.7
2016-08-30T00:14:22.821Z,17.64
2016-08-30T00:15:22.793Z,17.56
2016-08-30T00:16:22.781Z,17.56
2016-08-30T00:17:22.745Z,17.58
2016-08-30T00:18:22.702Z,17.54
2016-08-30T00:19:21.965Z,17.52
2016-08-30T00:20:22.702Z,17.46
2016-08-30T00:21:22.600Z,17.49
2016-08-30T00:22:22.568Z,17.51
2016-08-30T00:23:22.537Z,17.49
2016-08-30T00:24:22.508Z,17.48
2016-08-30T00:25:22.491Z,17.49
2016-08-30T00:26:22.454Z,17.44
2016-08-30T00:27:22.412Z,17.52
2016-08-30T00:28:21.686Z,17.49
2016-08-30T00:29:22.354Z,17.49
2016-08-30T00:30:22.330Z,17.55
2016-08-30T00:31:22.288Z,17.51
2016-08-30T00:32:21.557Z,17.46
2016-08-30T00:33:20.835Z,17.54
2016-08-30T00:34:22.194Z,17.52
2016-08-30T00:35:20.770Z,17.54
2016-08-30T00:36:22.130Z,17.49
2016-08-30T00:37:22.100Z,17.52
2016-08-30T00:38:21.370Z,17.54
2016-08-30T00:39:22.039Z,17.54
2016-08-30T00:40:22.008Z,17.56
2016-08-30T00:41:21.978Z,17.52
2016-08-30T00:42:21.942Z,17.55
2016-08-30T00:43:21.218Z,17.51
2016-08-30T00:44:21.881Z,17.43
2016-08-30T00:45:21.153Z,17.41
2016-08-30T00:46:21.819Z,17.48
2016-08-30T00:47:20.396Z,17.55
2016-08-30T00:48:21.061Z,17.4
2016-08-30T00:49:21.738Z,17.43
2016-08-30T00:50:21.696Z,17.48
2016-08-30T00:51:20.269Z,17.51
2016-08-30T00:52:20.941Z,17.46
2016-08-30T00:53:20.906Z,17.41
2016-08-30T00:54:20.874Z,17.41
2016-08-30T00:55:21.311Z,17.43
2016-08-30T00:56:21.513Z,17.41
2016-08-30T00:57:20.782Z,17.46
2016-08-30T00:58:21.451Z,17.46
2016-08-30T00:59:21.427Z,17.41
2016-08-30T01:00:20.688Z,17.4
2016-08-30T01:01:20.657Z,17.44
2016-08-30T01:02:20.626Z,17.44
2016-08-30T01:03:21.298Z,17.38
2016-08-30T01:04:20.575Z,17.31
2016-08-30T01:05:21.227Z,17.28
2016-08-30T01:06:20.501Z,17.25
2016-08-30T01:07:19.774Z,17.19
2016-08-30T01:08:20.439Z,17.14
2016-08-30T01:09:20.405Z,17.14
2016-08-30T01:10:21.072Z,17.07
2016-08-30T01:11:20.346Z,17.12
2016-08-30T01:12:21.011Z,17.03
2016-08-30T01:13:20.282Z,16.96
2016-08-30T01:14:20.251Z,16.91
2016-08-30T01:15:21.196Z,16.94
2016-08-30T01:16:20.899Z,16.83
2016-08-30T01:17:20.851Z,16.82
2016-08-30T01:18:20.126Z,16.88
2016-08-30T01:19:20.788Z,16.81
2016-08-30T01:20:20.062Z,16.78
2016-08-30T01:21:20.727Z,16.75
2016-08-30T01:22:19.999Z,16.7
2016-08-30T01:23:20.664Z,16.64
2016-08-30T01:24:20.639Z,16.53
2016-08-30T01:25:19.904Z,16.61
2016-08-30T01:26:19.872Z,16.57
2016-08-30T01:27:19.842Z,16.49
2016-08-30T01:28:20.509Z,16.52
2016-08-30T01:29:19.777Z,16.43
2016-08-30T01:30:20.453Z,16.43
2016-08-30T01:31:19.733Z,16.46
2016-08-30T01:32:20.377Z,16.38
2016-08-30T01:33:20.351Z,16.34
2016-08-30T01:34:19.618Z,16.39
2016-08-30T01:35:19.589Z,16.3
2016-08-30T01:36:20.275Z,16.34
2016-08-30T01:37:19.527Z,16.35
2016-08-30T01:38:20.208Z,16.39
2016-08-30T01:39:20.177Z,16.38
2016-08-30T01:40:19.428Z,16.31
2016-08-30T01:41:19.398Z,16.38
2016-08-30T01:42:19.365Z,16.23
2016-08-30T01:43:20.037Z,16.28
2016-08-30T01:44:20.000Z,16.25
2016-08-30T01:45:19.276Z,16.23
2016-08-30T01:46:19.244Z,16.23
2016-08-30T01:47:19.206Z,16.27
2016-08-30T01:48:19.181Z,16.23
2016-08-30T01:49:19.848Z,16.28
2016-08-30T01:50:19.986Z,16.24
2016-08-30T01:51:19.779Z,16.17
2016-08-30T01:52:18.356Z,16.27
2016-08-30T01:53:19.714Z,16.23
2016-08-30T01:54:19.682Z,16.24
2016-08-30T01:55:19.649Z,16.27
2016-08-30T01:56:19.619Z,16.27
2016-08-30T01:57:18.893Z,16.21
2016-08-30T01:58:18.860Z,16.17
2016-08-30T01:59:19.524Z,16.27
2016-08-30T02:00:19.093Z,16.21
2016-08-30T02:01:18.768Z,16.21
2016-08-30T02:02:19.423Z,16.15
2016-08-30T02:03:19.399Z,16.21
2016-08-30T02:04:19.365Z,16.2
2016-08-30T02:05:19.335Z,16.2
2016-08-30T02:06:18.604Z,16.27
2016-08-30T02:07:19.267Z,16.2
2016-08-30T02:08:18.546Z,16.23
2016-08-30T02:09:19.207Z,16.23
2016-08-30T02:10:19.181Z,16.23
2016-08-30T02:11:18.447Z,16.25
2016-08-30T02:12:18.415Z,16.27
2016-08-30T02:13:19.081Z,16.21
2016-08-30T02:14:19.050Z,16.2
2016-08-30T02:15:18.317Z,16.2
2016-08-30T02:16:17.598Z,16.11
2016-08-30T02:17:18.948Z,16.07
2016-08-30T02:18:18.922Z,16.07
2016-08-30T02:19:18.888Z,16.08
2016-08-30T02:20:18.867Z,16.01
2016-08-30T02:21:18.129Z,16.07
2016-08-30T02:22:18.796Z,16.01
2016-08-30T02:23:18.762Z,15.97
2016-08-30T02:24:18.733Z,15.97
2016-08-30T02:25:18.701Z,15.96
2016-08-30T02:26:18.665Z,15.93
2016-08-30T02:27:18.635Z,15.9
2016-08-30T02:28:18.603Z,15.89
2016-08-30T02:29:18.571Z,15.93
2016-08-30T02:30:18.446Z,15.93
2016-08-30T02:31:18.505Z,15.9
2016-08-30T02:32:18.473Z,15.87
2016-08-30T02:33:18.441Z,15.9
2016-08-30T02:34:18.413Z,15.9
2016-08-30T02:35:17.689Z,15.78
2016-08-30T02:36:18.353Z,15.8
2016-08-30T02:37:17.623Z,15.76
2016-08-30T02:38:18.285Z,15.82
2016-08-30T02:39:18.259Z,15.76
2016-08-30T02:40:16.822Z,15.83
2016-08-30T02:41:18.183Z,15.8
2016-08-30T02:42:17.461Z,15.76
2016-08-30T02:43:18.119Z,15.76
2016-08-30T02:44:17.388Z,15.74
2016-08-30T02:45:18.066Z,15.74
2016-08-30T02:46:18.022Z,15.78
2016-08-30T02:47:18.007Z,15.78
2016-08-30T02:48:17.957Z,15.71
2016-08-30T02:49:17.926Z,15.74
2016-08-30T02:50:17.214Z,15.71
2016-08-30T02:51:17.871Z,15.75
2016-08-30T02:52:17.836Z,15.76
2016-08-30T02:53:17.802Z,15.65
2016-08-30T02:54:17.769Z,15.72
2016-08-30T02:55:17.046Z,15.74
2016-08-30T02:56:16.315Z,15.84
2016-08-30T02:57:18.173Z,15.76
2016-08-30T02:58:17.638Z,15.69
2016-08-30T02:59:16.910Z,15.75
2016-08-30T03:00:17.574Z,15.71
2016-08-30T03:01:17.540Z,15.67
2016-08-30T03:02:17.509Z,15.69
2016-08-30T03:03:16.785Z,15.71
2016-08-30T03:04:16.752Z,15.68
2016-08-30T03:05:17.414Z,15.69
2016-08-30T03:06:17.384Z,15.6
2016-08-30T03:07:17.357Z,15.68
2016-08-30T03:08:17.318Z,15.72
2016-08-30T03:09:17.292Z,15.68
2016-08-30T03:10:17.252Z,15.72
2016-08-30T03:11:17.222Z,15.72
2016-08-30T03:12:17.188Z,15.71
2016-08-30T03:13:16.459Z,15.68
2016-08-30T03:14:17.122Z,15.65
2016-08-30T03:15:17.092Z,15.69
2016-08-30T03:16:17.057Z,15.75
2016-08-30T03:17:16.327Z,15.69
2016-08-30T03:18:16.297Z,15.69
2016-08-30T03:19:16.962Z,15.69
2016-08-30T03:20:16.931Z,15.67
2016-08-30T03:21:16.899Z,15.74
2016-08-30T03:22:16.867Z,15.71
2016-08-30T03:23:16.836Z,15.78
2016-08-30T03:24:16.803Z,15.69
2016-08-30T03:25:16.271Z,15.74
2016-08-30T03:26:16.039Z,15.78
2016-08-30T03:27:16.702Z,15.83
2016-08-30T03:28:16.670Z,15.8
2016-08-30T03:29:15.940Z,15.78
2016-08-30T03:30:15.911Z,15.76
2016-08-30T03:31:15.880Z,15.75
2016-08-30T03:32:16.539Z,15.78
2016-08-30T03:33:16.516Z,15.72
2016-08-30T03:34:15.782Z,15.71
2016-08-30T03:35:16.449Z,15.64
2016-08-30T03:36:16.413Z,15.67
2016-08-30T03:37:15.683Z,15.71
2016-08-30T03:38:15.650Z,15.72
2016-08-30T03:39:16.326Z,15.69
2016-08-30T03:40:16.284Z,15.67
2016-08-30T03:41:16.249Z,15.67
2016-08-30T03:42:15.539Z,15.75
2016-08-30T03:43:16.184Z,15.69
2016-08-30T03:44:16.153Z,15.72
2016-08-30T03:45:15.491Z,15.76
2016-08-30T03:46:16.094Z,15.8
2016-08-30T03:47:15.358Z,15.82
2016-08-30T03:48:16.023Z,15.93
2016-08-30T03:49:15.993Z,15.97
2016-08-30T03:50:15.959Z,15.89
2016-08-30T03:51:15.938Z,15.96
2016-08-30T03:52:15.892Z,16.02
2016-08-30T03:53:15.871Z,16.12
2016-08-30T03:54:15.831Z,16.04
2016-08-30T03:55:15.102Z,16.11
2016-08-30T03:56:15.766Z,16.09
2016-08-30T03:57:15.052Z,16.09
2016-08-30T03:58:15.705Z,16.11
2016-08-30T03:59:15.673Z,16.08
2016-08-30T04:00:15.672Z,16.12
2016-08-30T04:01:14.922Z,16.15
2016-08-30T04:02:15.573Z,16.23
2016-08-30T04:03:15.536Z,16.23
2016-08-30T04:04:15.505Z,16.25
2016-08-30T04:05:15.406Z,16.27
2016-08-30T04:06:15.441Z,16.28
2016-08-30T04:07:14.718Z,16.28
2016-08-30T04:08:15.378Z,16.31
2016-08-30T04:09:15.347Z,16.34
2016-08-30T04:10:14.724Z,16.31
2016-08-30T04:11:15.277Z,16.33
2016-08-30T04:12:15.251Z,16.39
2016-08-30T04:13:15.219Z,16.42
2016-08-30T04:14:14.490Z,16.42
2016-08-30T04:15:15.190Z,16.38
2016-08-30T04:16:14.427Z,16.53
2016-08-30T04:17:14.393Z,16.52
2016-08-30T04:18:14.361Z,16.53
2016-08-30T04:19:14.326Z,16.61
2016-08-30T04:20:14.998Z,16.58
2016-08-30T04:21:14.961Z,16.61
2016-08-30T04:22:14.931Z,16.64
2016-08-30T04:23:13.501Z,16.64
2016-08-30T04:24:14.171Z,16.63
2016-08-30T04:25:14.153Z,16.68
2016-08-30T04:26:13.404Z,16.75
2016-08-30T04:27:14.772Z,16.66
2016-08-30T04:28:14.038Z,16.64
2016-08-30T04:29:14.699Z,16.67
2016-08-30T04:30:14.669Z,16.66
2016-08-30T04:31:13.940Z,16.68
2016-08-30T04:32:14.605Z,16.64
2016-08-30T04:33:14.574Z,16.7
2016-08-30T04:34:13.844Z,16.75
2016-08-30T04:35:13.812Z,16.71
2016-08-30T04:36:14.478Z,16.7
2016-08-30T04:37:13.758Z,16.76
2016-08-30T04:38:13.720Z,16.81
2016-08-30T04:39:14.383Z,16.82
2016-08-30T04:40:12.966Z,16.82
2016-08-30T04:41:13.623Z,16.94
2016-08-30T04:42:12.895Z,16.89
2016-08-30T04:43:14.256Z,16.94
2016-08-30T04:44:14.222Z,16.93
2016-08-30T04:45:13.889Z,16.98
2016-08-30T04:46:14.163Z,17.07
2016-08-30T04:47:14.127Z,17.04
2016-08-30T04:48:13.406Z,17.12
2016-08-30T04:49:13.367Z,17.11
2016-08-30T04:50:13.334Z,17.18
2016-08-30T04:51:13.306Z,17.22
2016-08-30T04:52:13.970Z,17.22
2016-08-30T04:53:12.541Z,17.33
2016-08-30T04:54:13.209Z,17.37
2016-08-30T04:55:13.871Z,17.34
2016-08-30T04:56:13.843Z,17.43
2016-08-30T04:57:13.115Z,17.56
2016-08-30T04:58:13.779Z,17.52
2016-08-30T04:59:13.747Z,17.64
2016-08-30T05:00:13.020Z,17.68
2016-08-30T05:01:12.990Z,17.7
2016-08-30T05:02:12.954Z,17.74
2016-08-30T05:03:12.925Z,17.74
2016-08-30T05:04:12.893Z,17.82
2016-08-30T05:05:13.557Z,17.89
2016-08-30T05:06:12.129Z,17.9
2016-08-30T05:07:12.798Z,17.92
2016-08-30T05:08:13.461Z,17.97
2016-08-30T05:09:13.432Z,17.97
2016-08-30T05:10:12.705Z,18.08
2016-08-30T05:11:13.372Z,18.1
2016-08-30T05:12:13.337Z,18.17
2016-08-30T05:13:12.609Z,18.27
2016-08-30T05:14:12.578Z,18.37
2016-08-30T05:15:12.546Z,18.55
2016-08-30T05:16:13.216Z,18.81
2016-08-30T05:17:12.483Z,19
2016-08-30T05:18:13.151Z,19.11
2016-08-30T05:19:12.424Z,19.43
2016-08-30T05:20:13.206Z,19.56
2016-08-30T05:21:13.061Z,19.84
2016-08-30T05:22:13.036Z,20.02
2016-08-30T05:23:13.005Z,20.28
2016-08-30T05:24:12.969Z,20.42
2016-08-30T05:25:12.261Z,20.77
2016-08-30T05:26:12.215Z,20.97
2016-08-30T05:27:12.879Z,21.12
2016-08-30T05:28:12.856Z,21.32
2016-08-30T05:29:12.123Z,21.38
2016-08-30T05:30:12.096Z,21.5
2016-08-30T05:31:12.762Z,21.75
2016-08-30T05:32:12.735Z,21.92
2016-08-30T05:33:12.013Z,22.1
2016-08-30T05:34:11.278Z,22.2
2016-08-30T05:35:12.724Z,22.37
2016-08-30T05:36:13.041Z,22.4
2016-08-30T05:37:12.626Z,22.57
2016-08-30T05:38:12.575Z,22.72
2016-08-30T05:39:11.133Z,22.83
2016-08-30T05:40:31.018Z,22.86
2016-08-30T05:41:14.403Z,22.86
2016-08-30T05:42:12.467Z,22.82
2016-08-30T05:43:12.431Z,22.95
2016-08-30T05:44:11.006Z,23.1
2016-08-30T05:45:12.368Z,23.09
2016-08-30T05:46:12.729Z,23.1
2016-08-30T05:47:11.611Z,23.12
2016-08-30T05:48:12.339Z,23.22
2016-08-30T05:49:12.257Z,23.19
2016-08-30T05:50:12.461Z,23.17
2016-08-30T05:51:10.803Z,23.15
2016-08-30T05:52:12.180Z,23.19
2016-08-30T05:53:11.447Z,23.33
2016-08-30T05:57:06.957Z,23.42
2016-08-30T05:58:08.881Z,23.5
2016-08-30T05:59:01.169Z,23.58
2016-08-30T06:00:01.894Z,23.78
2016-08-30T06:01:16.800Z,24.03
2016-08-30T06:02:00.826Z,24.1
2016-08-30T06:02:59.674Z,24.28
2016-08-30T06:04:00.348Z,24.43
2016-08-30T06:04:59.621Z,24.83
2016-08-30T06:05:59.622Z,25.13
2016-08-30T06:07:03.284Z,25.36
2016-08-30T06:08:01.425Z,25.38
2016-08-30T06:09:06.029Z,25.46
2016-08-30T06:10:00.254Z,25.45
2016-08-30T06:10:59.482Z,25.57
2016-08-30T06:11:59.433Z,25.77
2016-08-30T06:13:00.112Z,25.82
2016-08-30T06:13:59.379Z,25.92
2016-08-30T06:15:00.263Z,26.2
2016-08-30T06:15:59.331Z,26.3
2016-08-30T06:16:59.998Z,26.52
2016-08-30T06:18:00.676Z,26.88
2016-08-30T06:18:59.948Z,27.06
2016-08-30T06:19:59.994Z,27.12
2016-08-30T06:20:59.913Z,27.29
2016-08-30T06:21:59.175Z,27.55
2016-08-30T06:22:59.847Z,27.57
2016-08-30T06:23:59.820Z,27.49
2016-08-30T06:25:00.486Z,27.55
2016-08-30T06:25:59.769Z,27.69
2016-08-30T06:26:59.742Z,27.63
2016-08-30T06:28:00.414Z,27.65
2016-08-30T06:29:00.762Z,27.67
2016-08-30T06:29:59.667Z,27.79
2016-08-30T06:31:00.338Z,28.06
2016-08-30T06:31:58.920Z,28.36
2016-08-30T06:32:58.896Z,28.4
2016-08-30T06:34:00.268Z,28.31
2016-08-30T06:35:00.240Z,28.11
2016-08-30T06:35:59.521Z,28.06
2016-08-30T06:36:59.496Z,28.12
2016-08-30T06:38:00.173Z,28.09
2016-08-30T06:39:00.148Z,28.04
2016-08-30T06:40:00.122Z,28.12
2016-08-30T06:41:00.102Z,28.11
2016-08-30T06:42:00.094Z,28.17
2016-08-30T06:43:00.051Z,28.34
2016-08-30T06:44:00.024Z,28.36
2016-08-30T06:44:58.623Z,28.31
2016-08-30T06:45:59.978Z,28.31
2016-08-30T06:46:59.957Z,28.37
2016-08-30T06:47:59.935Z,28.49
2016-08-30T06:48:58.518Z,28.51
2016-08-30T06:49:59.197Z,28.52
2016-08-30T06:50:59.168Z,28.71
2016-08-30T06:51:59.849Z,28.89
2016-08-30T06:52:59.122Z,28.98
2016-08-30T06:53:59.097Z,29.04
2016-08-30T06:54:59.069Z,29.09
2016-08-30T06:55:58.376Z,29.12
2016-08-30T06:56:59.728Z,29.36
2016-08-30T06:57:59.701Z,29.39
2016-08-30T06:58:58.977Z,29.57
2016-08-30T06:59:59.652Z,29.61
2016-08-30T07:00:58.939Z,29.61
2016-08-30T07:01:58.911Z,29.74
2016-08-30T07:02:58.192Z,29.94
2016-08-30T07:03:58.868Z,29.98
2016-08-30T07:04:58.843Z,30.02
2016-08-30T07:05:59.518Z,30.17
2016-08-30T07:06:59.507Z,30.23
2016-08-30T07:07:59.476Z,30.55
2016-08-30T07:08:58.752Z,30.58
2016-08-30T07:09:59.425Z,30.77
2016-08-30T07:10:58.708Z,30.77
2016-08-30T07:11:59.382Z,30.8
2016-08-30T07:12:59.368Z,30.95
2016-08-30T07:13:57.941Z,31.09
2016-08-30T07:14:58.620Z,31.2
2016-08-30T07:15:57.901Z,31.13
2016-08-30T07:16:59.270Z,31.13
2016-08-30T07:17:58.553Z,31.29
2016-08-30T07:18:57.836Z,31.31
2016-08-30T07:19:58.048Z,31.16
2016-08-30T07:20:57.796Z,31.12
2016-08-30T07:21:58.473Z,30.98
2016-08-30T07:22:57.758Z,30.99
2016-08-30T07:23:58.447Z,31.17
2016-08-30T07:24:57.748Z,31.31
2016-08-30T07:25:59.087Z,31.13
2016-08-30T07:26:58.350Z,31.29
2016-08-30T07:27:59.025Z,31.46
2016-08-30T07:28:59.007Z,31.54
2016-08-30T07:29:58.983Z,31.95
2016-08-30T07:30:58.269Z,31.89
2016-08-30T07:31:58.939Z,32.03
2016-08-30T07:32:58.924Z,32.22
2016-08-30T07:33:58.905Z,32.63
2016-08-30T07:34:57.485Z,33.28
2016-08-30T07:35:58.873Z,33.61
2016-08-30T07:36:58.834Z,33.68
2016-08-30T07:37:58.818Z,33.73
2016-08-30T07:38:58.097Z,33.93
2016-08-30T07:39:58.781Z,34.42
2016-08-30T07:40:58.749Z,34.8
2016-08-30T07:41:58.733Z,34.94
2016-08-30T07:42:58.708Z,35.07
2016-08-30T07:43:57.991Z,35.22
2016-08-30T07:44:57.990Z,34.94
2016-08-30T07:45:58.654Z,35.14
2016-08-30T07:46:58.632Z,35.4
2016-08-30T07:47:57.909Z,35.7
2016-08-30T07:48:57.193Z,35.94
2016-08-30T07:49:58.566Z,36.28
2016-08-30T07:50:57.850Z,36.35
2016-08-30T07:51:58.527Z,36.2
2016-08-30T07:52:58.504Z,36.17
2016-08-30T07:53:58.480Z,36.23
2016-08-30T07:54:58.472Z,36.32
2016-08-30T07:55:58.451Z,36.51
2016-08-30T07:56:58.427Z,36.99
2016-08-30T07:57:58.409Z,37.28
2016-08-30T07:58:58.383Z,37.4
2016-08-30T07:59:58.365Z,37.5
2016-08-30T08:00:58.354Z,37.69
2016-08-30T08:01:57.643Z,37.82
2016-08-30T08:02:56.914Z,38.22
2016-08-30T08:03:58.287Z,38.53
2016-08-30T08:04:57.571Z,38.59
2016-08-30T08:05:58.255Z,38.83
2016-08-30T08:06:57.529Z,38.9
2016-08-30T08:07:58.207Z,38.99
2016-08-30T08:08:58.191Z,39.14
2016-08-30T08:09:58.171Z,39.5
2016-08-30T08:10:58.156Z,39.69
2016-08-30T08:11:57.436Z,39.57
2016-08-30T08:12:57.412Z,39.48
2016-08-30T08:13:58.092Z,39.55
2016-08-30T08:14:57.374Z,39.51
2016-08-30T08:15:58.056Z,39.4
2016-08-30T08:16:58.048Z,39.4
2016-08-30T08:17:58.016Z,39.5
2016-08-30T08:18:57.998Z,39.51
2016-08-30T08:19:57.979Z,39.5
2016-08-30T08:20:57.265Z,39.35
2016-08-30T08:21:57.250Z,39.32
2016-08-30T08:22:57.996Z,39.09
2016-08-30T08:23:57.909Z,39.04
2016-08-30T08:24:57.884Z,38.76
2016-08-30T08:25:56.479Z,38.72
2016-08-30T08:26:56.461Z,39.09
2016-08-30T08:27:57.135Z,39.41
2016-08-30T08:28:57.125Z,39.45
2016-08-30T08:29:57.793Z,39.09
2016-08-30T08:30:57.074Z,39.09
2016-08-30T08:31:56.360Z,39.3
2016-08-30T08:32:57.737Z,39.47
2016-08-30T08:33:57.027Z,39.77
2016-08-30T08:34:57.699Z,40.06
2016-08-30T08:35:57.683Z,40.23
2016-08-30T08:36:57.668Z,40.06
2016-08-30T08:37:56.951Z,40.22
2016-08-30T08:38:56.934Z,40.45
2016-08-30T08:39:57.607Z,40.26
2016-08-30T08:42:11.655Z,40.32
2016-08-30T08:43:12.204Z,40.58
2016-08-30T08:44:12.242Z,40.83
2016-08-30T08:45:15.804Z,40.74
2016-08-30T08:46:11.930Z,40.88
2016-08-30T08:47:10.756Z,41.07
2016-08-30T08:48:11.221Z,41.48
2016-08-30T08:49:11.481Z,41.17
2016-08-30T08:50:10.686Z,41.33
2016-08-30T08:51:11.513Z,41.52
2016-08-30T08:52:11.415Z,41.73
2016-08-30T08:53:10.735Z,41.74
2016-08-30T08:54:10.613Z,41.52
2016-08-30T08:55:10.592Z,41.35
2016-08-30T08:56:12.056Z,41.1
2016-08-30T08:57:10.547Z,40.95
2016-08-30T08:58:11.239Z,40.76
2016-08-30T08:59:10.762Z,40.89
2016-08-30T09:00:10.672Z,40.76
2016-08-30T09:01:10.573Z,40.83
2016-08-30T09:02:11.197Z,41.1
2016-08-30T09:03:10.454Z,41.57
2016-08-30T09:04:11.125Z,41.91
2016-08-30T09:05:11.180Z,42.39
2016-08-30T09:06:10.445Z,42.65
2016-08-30T09:07:12.069Z,41.94
2016-08-30T09:08:11.072Z,41.21
2016-08-30T09:09:10.347Z,40.92
2016-08-30T09:10:11.294Z,41.23
2016-08-30T09:11:11.020Z,41.13
2016-08-30T09:12:13.731Z,40.96
2016-08-30T09:13:10.966Z,41.18
2016-08-30T09:14:11.648Z,41.07
2016-08-30T09:15:10.935Z,40.77
2016-08-30T09:16:10.917Z,40.26
2016-08-30T09:17:10.906Z,40.27
2016-08-30T09:18:10.186Z,40.29
2016-08-30T09:19:11.572Z,40.16
2016-08-30T09:20:11.553Z,39.91
2016-08-30T09:21:10.833Z,40.06
2016-08-30T09:22:11.512Z,40.29
2016-08-30T09:23:10.801Z,40.51
2016-08-30T09:24:11.477Z,40.74
2016-08-30T09:25:11.502Z,40.96
2016-08-30T09:26:10.748Z,40.89
2016-08-30T09:27:10.727Z,40.87
2016-08-30T09:28:10.714Z,40.89
2016-08-30T09:29:11.394Z,41.16
2016-08-30T09:30:11.248Z,41.44
2016-08-30T09:31:11.358Z,41.3
2016-08-30T09:32:10.643Z,41.14
2016-08-30T09:33:11.329Z,40.73
2016-08-30T09:34:11.314Z,40.58
2016-08-30T09:35:11.901Z,40.77
2016-08-30T09:36:10.577Z,40.64
2016-08-30T09:37:11.258Z,40.07
2016-08-30T09:38:11.246Z,39.98
2016-08-30T09:39:10.533Z,40.29
2016-08-30T09:40:10.514Z,39.96
2016-08-30T09:41:09.797Z,39.88
2016-08-30T09:42:10.479Z,39.81
2016-08-30T09:43:11.155Z,39.96
2016-08-30T09:44:11.143Z,40.26
2016-08-30T09:45:10.427Z,40.58
2016-08-30T09:46:11.110Z,40.41
2016-08-30T09:47:11.089Z,39.82
2016-08-30T09:48:10.375Z,39.55
2016-08-30T09:49:11.053Z,39.1
2016-08-30T09:50:10.395Z,38.76
2016-08-30T09:51:11.026Z,38.54
2016-08-30T09:52:10.310Z,38.13
2016-08-30T09:53:10.991Z,37.94
2016-08-30T09:54:10.273Z,38.06
2016-08-30T09:55:10.961Z,38.2
2016-08-30T09:56:10.238Z,38.47
2016-08-30T09:57:10.224Z,38.49
2016-08-30T09:58:10.203Z,38.42
2016-08-30T09:59:10.187Z,38.41
2016-08-30T10:00:10.875Z,38.65
2016-08-30T10:01:10.858Z,38.91
2016-08-30T10:02:10.856Z,38.81
2016-08-30T10:03:10.119Z,38.54
2016-08-30T10:04:10.103Z,38.53
2016-08-30T10:05:09.390Z,38.4
2016-08-30T10:06:10.771Z,38.38
2016-08-30T10:07:10.746Z,38.41
2016-08-30T10:08:10.034Z,38.28
2016-08-30T10:09:10.720Z,37.91
2016-08-30T10:10:10.699Z,37.98
2016-08-30T10:11:09.986Z,38.25
2016-08-30T10:12:09.968Z,38.06
2016-08-30T10:13:09.950Z,37.97
2016-08-30T10:14:09.935Z,37.86
2016-08-30T10:15:09.220Z,37.62
2016-08-30T10:16:10.596Z,38.06
2016-08-30T10:17:09.883Z,38.2
2016-08-30T10:18:10.561Z,38
2016-08-30T10:19:10.544Z,37.84
2016-08-30T10:20:10.567Z,37.7
2016-08-30T10:21:10.026Z,37.82
2016-08-30T10:22:10.489Z,38.01
2016-08-30T10:23:09.791Z,38.01
2016-08-30T10:24:10.460Z,38.15
2016-08-30T10:25:10.438Z,38.31
2016-08-30T10:26:10.436Z,38.28
2016-08-30T10:27:09.017Z,38.35
2016-08-30T10:28:08.999Z,38.25
2016-08-30T10:29:09.681Z,38.63
2016-08-30T10:30:10.464Z,38.93
2016-08-30T10:31:09.645Z,39.35
2016-08-30T10:32:09.625Z,39.72
2016-08-30T10:33:09.613Z,39.85
2016-08-30T10:34:10.286Z,39.84
2016-08-30T10:35:09.579Z,39.62
2016-08-30T10:36:09.567Z,39.48
2016-08-30T10:37:10.237Z,39.63
2016-08-30T10:38:09.525Z,39.75
2016-08-30T10:39:10.202Z,39.4
2016-08-30T10:40:09.492Z,39.32
2016-08-30T10:41:10.183Z,39.23
2016-08-30T10:42:08.758Z,39.04
2016-08-30T10:43:08.742Z,38.95
2016-08-30T10:44:09.425Z,38.91
2016-08-30T10:45:09.425Z,38.52
2016-08-30T10:46:09.394Z,38.38
2016-08-30T10:47:09.374Z,37.69
2016-08-30T10:48:09.353Z,37.29
2016-08-30T10:49:09.328Z,37.17
2016-08-30T10:50:09.883Z,36.99
2016-08-30T10:51:09.302Z,36.64
2016-08-30T10:52:09.975Z,36.85
2016-08-30T10:53:09.977Z,37.28
2016-08-30T10:54:09.244Z,37.55
2016-08-30T10:55:09.922Z,37.32
2016-08-30T10:56:09.208Z,36.88
2016-08-30T10:57:09.883Z,36.49
2016-08-30T10:58:09.176Z,36.5
2016-08-30T10:59:09.851Z,36.46
2016-08-30T11:00:09.134Z,36.59
2016-08-30T11:01:09.810Z,36.07
2016-08-30T11:02:09.143Z,35.74
2016-08-30T11:03:09.774Z,35.66
2016-08-30T11:04:09.751Z,35.11
2016-08-30T11:05:09.951Z,34.59
2016-08-30T11:06:09.729Z,34.27
2016-08-30T11:07:09.693Z,34.22
2016-08-30T11:08:09.678Z,34.06
2016-08-30T11:09:09.656Z,34.06
2016-08-30T11:10:08.939Z,34.1
2016-08-30T11:11:08.921Z,34.22
2016-08-30T11:12:09.602Z,34.44
2016-08-30T11:13:08.882Z,34.56
2016-08-30T11:14:09.566Z,34.53
2016-08-30T11:15:09.537Z,33.75
2016-08-30T11:16:08.825Z,32.99
2016-08-30T11:17:09.503Z,32.41
2016-08-30T11:18:09.483Z,32.25
2016-08-30T11:19:09.456Z,31.75
2016-08-30T11:20:09.447Z,31.36
2016-08-30T11:21:08.728Z,31.04
2016-08-30T11:22:09.396Z,30.69
2016-08-30T11:23:08.686Z,30.51
2016-08-30T11:24:09.358Z,30.11
2016-08-30T11:25:08.638Z,29.57
2016-08-30T11:26:09.315Z,29.3
2016-08-30T11:27:09.295Z,28.93
2016-08-30T11:28:07.876Z,28.67
2016-08-30T11:29:08.550Z,28.34
2016-08-30T11:30:08.543Z,28.09
2016-08-30T11:31:09.199Z,27.84
2016-08-30T11:32:07.787Z,27.5
2016-08-30T11:33:08.461Z,27.18
2016-08-30T11:34:09.133Z,27.04
2016-08-30T11:35:08.675Z,26.95
2016-08-30T11:36:09.089Z,26.69
2016-08-30T11:37:09.074Z,26.43
2016-08-30T11:38:08.347Z,26.29
2016-08-30T11:39:09.015Z,26.32
2016-08-30T11:40:08.995Z,26.35
2016-08-30T11:41:08.279Z,26.25
2016-08-30T11:42:08.943Z,26.13
2016-08-30T11:43:08.929Z,26.01
2016-08-30T11:44:07.504Z,26.07
2016-08-30T11:45:08.174Z,25.95
2016-08-30T11:46:08.851Z,25.88
2016-08-30T11:47:08.842Z,25.76
2016-08-30T11:48:08.097Z,25.6
2016-08-30T11:49:08.081Z,25.46
2016-08-30T11:50:08.067Z,25.35
2016-08-30T11:51:08.024Z,25.33
2016-08-30T11:52:07.998Z,25.35
2016-08-30T11:53:07.975Z,25.51
2016-08-30T11:54:07.253Z,25.6
2016-08-30T11:55:08.627Z,25.52
2016-08-30T11:56:07.896Z,25.54
2016-08-30T11:57:08.568Z,25.58
2016-08-30T11:58:08.544Z,25.54
2016-08-30T11:59:08.525Z,25.45
2016-08-30T12:00:07.799Z,25.58
2016-08-30T12:01:07.074Z,25.43
2016-08-30T12:02:08.443Z,25.6
2016-08-30T12:03:07.715Z,25.61
2016-08-30T12:04:08.389Z,25.57
2016-08-30T12:05:07.693Z,25.55
2016-08-30T12:06:06.942Z,25.5
2016-08-30T12:07:07.617Z,25.55
2016-08-30T12:08:08.288Z,25.55
2016-08-30T12:09:06.862Z,25.6
2016-08-30T12:10:06.840Z,25.51
2016-08-30T12:11:06.813Z,25.43
2016-08-30T12:12:08.177Z,25.33
2016-08-30T12:13:06.761Z,25.25
2016-08-30T12:14:08.127Z,25.25
2016-08-30T12:15:08.201Z,25.28
2016-08-30T12:16:08.093Z,25.24
2016-08-30T12:17:08.050Z,25.32
2016-08-30T12:18:07.322Z,25.28
2016-08-30T12:19:08.013Z,25.28
2016-08-30T12:20:07.978Z,25.36
2016-08-30T12:21:07.952Z,25.46
2016-08-30T12:22:07.228Z,25.45
2016-08-30T12:23:07.891Z,25.38
2016-08-30T12:24:07.869Z,25.2
2016-08-30T12:25:07.142Z,25.18
2016-08-30T12:26:07.122Z,25.08
2016-08-30T12:27:07.088Z,25.05
2016-08-30T12:28:07.757Z,24.98
2016-08-30T12:29:07.036Z,24.87
2016-08-30T12:30:07.718Z,24.88
2016-08-30T12:31:07.688Z,24.85
2016-08-30T12:32:06.957Z,24.98
2016-08-30T12:33:06.927Z,25
2016-08-30T12:34:06.209Z,24.9
2016-08-30T12:35:06.182Z,24.93
2016-08-30T12:36:07.549Z,25.06
2016-08-30T12:37:07.525Z,24.98
2016-08-30T12:38:06.794Z,25.13
2016-08-30T12:39:06.774Z,25.03
2016-08-30T12:40:07.586Z,25.06
2016-08-30T12:41:07.414Z,25.1
2016-08-30T12:42:06.691Z,24.99
2016-08-30T12:43:07.359Z,24.9
2016-08-30T12:44:05.941Z,25.05
2016-08-30T12:45:06.621Z,24.98
2016-08-30T12:46:07.277Z,24.99
2016-08-30T12:47:07.253Z,25.05
2016-08-30T12:48:06.543Z,25.02
2016-08-30T12:49:05.809Z,25.02
2016-08-30T12:50:06.476Z,25
2016-08-30T12:51:06.454Z,25.02
2016-08-30T12:52:05.760Z,25.03
2016-08-30T12:53:06.402Z,25.08
2016-08-30T12:54:07.072Z,25.14
2016-08-30T12:55:07.611Z,25.21
2016-08-30T12:56:07.012Z,25.3
2016-08-30T12:57:06.991Z,25.3
2016-08-30T12:58:06.963Z,25.35
2016-08-30T12:59:06.239Z,25.35